sensor_id;sensor_type;location;lat;lon;timestamp;temperature;humidity
25360;DHT22;13311;51.386;0.016;2023-09-18T00:02:47;20.60;99.90
25360;DHT22;13311;51.386;0.016;2023-09-18T00:07:48;20.60;99.90
25360;DHT22;13311;51.386;0.016;2023-09-18T00:12:49;20.60;99.90
25360;DHT22;13311;51.386;0.016;2023-09-18T00:17:49;20.50;99.90
25360;DHT22;13311;51.386;0.016;2023-09-18T00:22:50;20.40;99.90
25360;DHT22;13311;51.386;0.016;2023-09-18T00:27:51;20.50;99.90
25360;DHT22;13311;51.386;0.016;2023-09-18T00:32:54;20.50;99.90
25360;DHT22;13311;51.386;0.016;2023-09-18T00:37:55;20.60;99.90
25360;DHT22;13311;51.386;0.016;2023-09-18T00:42:56;20.50;99.90
25360;DHT22;13311;51.386;0.016;2023-09-18T00:47:57;20.40;99.90
25360;DHT22;13311;51.386;0.016;2023-09-18T00:52:59;20.40;99.90
25360;DHT22;13311;51.386;0.016;2023-09-18T00:58:00;20.20;99.90
25360;DHT22;13311;51.386;0.016;2023-09-18T01:03:02;20.10;99.90
25360;DHT22;13311;51.386;0.016;2023-09-18T01:08:04;19.90;99.90
25360;DHT22;13311;51.386;0.016;2023-09-18T01:13:11;19.80;99.90
25360;DHT22;13311;51.386;0.016;2023-09-18T01:18:13;19.80;99.90
25360;DHT22;13311;51.386;0.016;2023-09-18T01:23:14;19.90;99.90
25360;DHT22;13311;51.386;0.016;2023-09-18T01:28:15;19.80;99.90
25360;DHT22;13311;51.386;0.016;2023-09-18T01:33:17;19.80;99.90
25360;DHT22;13311;51.386;0.016;2023-09-18T01:38:19;19.90;99.90
25360;DHT22;13311;51.386;0.016;2023-09-18T01:43:20;20.00;99.90
25360;DHT22;13311;51.386;0.016;2023-09-18T01:48:21;20.10;99.90
25360;DHT22;13311;51.386;0.016;2023-09-18T01:53:22;20.10;99.90
25360;DHT22;13311;51.386;0.016;2023-09-18T01:58:22;20.10;99.90
25360;DHT22;13311;51.386;0.016;2023-09-18T02:03:23;20.10;99.90
25360;DHT22;13311;51.386;0.016;2023-09-18T02:08:24;20.10;99.90
25360;DHT22;13311;51.386;0.016;2023-09-18T02:13:24;20.10;99.90
25360;DHT22;13311;51.386;0.016;2023-09-18T02:18:25;20.20;99.90
25360;DHT22;13311;51.386;0.016;2023-09-18T02:23:26;20.30;99.70
25360;DHT22;13311;51.386;0.016;2023-09-18T02:28:27;20.30;99.70
25360;DHT22;13311;51.386;0.016;2023-09-18T02:33:27;20.20;99.60
25360;DHT22;13311;51.386;0.016;2023-09-18T02:38:28;20.10;99.70
25360;DHT22;13311;51.386;0.016;2023-09-18T02:43:30;20.10;99.80
25360;DHT22;13311;51.386;0.016;2023-09-18T02:48:31;20.00;99.90
25360;DHT22;13311;51.386;0.016;2023-09-18T02:53:32;19.90;99.80
25360;DHT22;13311;51.386;0.016;2023-09-18T02:58:33;19.90;99.70
25360;DHT22;13311;51.386;0.016;2023-09-18T03:03:35;19.90;99.70
25360;DHT22;13311;51.386;0.016;2023-09-18T03:08:36;19.80;99.80
25360;DHT22;13311;51.386;0.016;2023-09-18T03:13:37;19.70;99.90
25360;DHT22;13311;51.386;0.016;2023-09-18T03:18:38;19.60;99.90
25360;DHT22;13311;51.386;0.016;2023-09-18T03:23:38;19.60;99.90
25360;DHT22;13311;51.386;0.016;2023-09-18T03:28:39;19.50;99.90
25360;DHT22;13311;51.386;0.016;2023-09-18T03:33:40;19.40;99.90
25360;DHT22;13311;51.386;0.016;2023-09-18T03:38:40;19.30;99.90
25360;DHT22;13311;51.386;0.016;2023-09-18T03:43:41;19.40;99.90
25360;DHT22;13311;51.386;0.016;2023-09-18T03:48:42;19.50;99.90
25360;DHT22;13311;51.386;0.016;2023-09-18T03:53:42;19.50;99.90
25360;DHT22;13311;51.386;0.016;2023-09-18T03:58:43;19.30;99.90
25360;DHT22;13311;51.386;0.016;2023-09-18T04:03:47;19.30;99.90
25360;DHT22;13311;51.386;0.016;2023-09-18T04:08:47;19.20;99.90
25360;DHT22;13311;51.386;0.016;2023-09-18T04:13:48;19.20;99.90
25360;DHT22;13311;51.386;0.016;2023-09-18T04:18:49;19.30;99.90
25360;DHT22;13311;51.386;0.016;2023-09-18T04:23:50;19.50;99.90
25360;DHT22;13311;51.386;0.016;2023-09-18T04:28:59;19.50;99.90
25360;DHT22;13311;51.386;0.016;2023-09-18T04:34:00;19.60;99.90
25360;DHT22;13311;51.386;0.016;2023-09-18T04:39:02;19.70;99.90
25360;DHT22;13311;51.386;0.016;2023-09-18T04:44:06;19.70;99.80
25360;DHT22;13311;51.386;0.016;2023-09-18T04:49:07;19.70;99.90
25360;DHT22;13311;51.386;0.016;2023-09-18T04:54:11;19.70;99.80
25360;DHT22;13311;51.386;0.016;2023-09-18T04:59:11;19.60;99.90
25360;DHT22;13311;51.386;0.016;2023-09-18T05:04:12;19.70;99.90
25360;DHT22;13311;51.386;0.016;2023-09-18T05:09:13;19.60;99.90
25360;DHT22;13311;51.386;0.016;2023-09-18T05:14:15;19.70;99.90
25360;DHT22;13311;51.386;0.016;2023-09-18T05:19:16;19.70;99.90
25360;DHT22;13311;51.386;0.016;2023-09-18T05:24:17;19.80;99.90
25360;DHT22;13311;51.386;0.016;2023-09-18T05:29:20;19.90;99.70
25360;DHT22;13311;51.386;0.016;2023-09-18T05:34:21;20.00;99.50
25360;DHT22;13311;51.386;0.016;2023-09-18T05:39:22;20.00;99.90
25360;DHT22;13311;51.386;0.016;2023-09-18T05:44:22;19.90;99.90
25360;DHT22;13311;51.386;0.016;2023-09-18T05:49:23;19.90;99.90
25360;DHT22;13311;51.386;0.016;2023-09-18T05:54:24;19.90;99.90
25360;DHT22;13311;51.386;0.016;2023-09-18T05:59:25;19.90;99.80
25360;DHT22;13311;51.386;0.016;2023-09-18T06:04:25;19.90;99.80
25360;DHT22;13311;51.386;0.016;2023-09-18T06:09:26;19.90;99.60
25360;DHT22;13311;51.386;0.016;2023-09-18T06:14:27;20.00;99.60
25360;DHT22;13311;51.386;0.016;2023-09-18T06:19:28;20.00;99.30
25360;DHT22;13311;51.386;0.016;2023-09-18T06:24:28;20.10;99.90
25360;DHT22;13311;51.386;0.016;2023-09-18T06:29:32;20.20;99.50
25360;DHT22;13311;51.386;0.016;2023-09-18T06:34:34;20.30;99.40
25360;DHT22;13311;51.386;0.016;2023-09-18T06:39:35;20.40;99.40
25360;DHT22;13311;51.386;0.016;2023-09-18T06:44:37;20.50;99.10
25360;DHT22;13311;51.386;0.016;2023-09-18T06:49:38;20.60;98.70
25360;DHT22;13311;51.386;0.016;2023-09-18T06:54:39;20.80;98.30
25360;DHT22;13311;51.386;0.016;2023-09-18T06:59:39;21.00;98.50
25360;DHT22;13311;51.386;0.016;2023-09-18T07:04:41;21.20;97.90
25360;DHT22;13311;51.386;0.016;2023-09-18T07:09:46;21.40;97.60
25360;DHT22;13311;51.386;0.016;2023-09-18T07:14:48;21.60;97.20
25360;DHT22;13311;51.386;0.016;2023-09-18T07:19:48;21.70;96.90
25360;DHT22;13311;51.386;0.016;2023-09-18T07:24:49;21.80;96.60
25360;DHT22;13311;51.386;0.016;2023-09-18T07:29:50;21.70;96.70
25360;DHT22;13311;51.386;0.016;2023-09-18T07:34:50;21.90;96.80
25360;DHT22;13311;51.386;0.016;2023-09-18T07:39:51;21.70;96.10
25360;DHT22;13311;51.386;0.016;2023-09-18T07:44:52;21.80;96.10
25360;DHT22;13311;51.386;0.016;2023-09-18T07:49:53;21.80;95.80
25360;DHT22;13311;51.386;0.016;2023-09-18T07:54:55;21.80;96.00
25360;DHT22;13311;51.386;0.016;2023-09-18T07:59:56;21.70;96.10
25360;DHT22;13311;51.386;0.016;2023-09-18T08:04:57;21.60;96.10
25360;DHT22;13311;51.386;0.016;2023-09-18T08:09:58;21.60;95.50
25360;DHT22;13311;51.386;0.016;2023-09-18T08:14:58;21.60;96.10
25360;DHT22;13311;51.386;0.016;2023-09-18T08:19:59;21.40;95.70
25360;DHT22;13311;51.386;0.016;2023-09-18T08:25:00;21.50;96.00
25360;DHT22;13311;51.386;0.016;2023-09-18T08:30:00;21.60;96.30
25360;DHT22;13311;51.386;0.016;2023-09-18T08:35:01;21.70;96.40
25360;DHT22;13311;51.386;0.016;2023-09-18T08:40:02;21.70;95.90
25360;DHT22;13311;51.386;0.016;2023-09-18T08:45:10;21.70;96.00
25360;DHT22;13311;51.386;0.016;2023-09-18T08:50:16;21.50;96.60
25360;DHT22;13311;51.386;0.016;2023-09-18T08:55:18;21.60;96.70
25360;DHT22;13311;51.386;0.016;2023-09-18T09:00:19;21.70;96.90
25360;DHT22;13311;51.386;0.016;2023-09-18T09:05:21;21.80;97.00
25360;DHT22;13311;51.386;0.016;2023-09-18T09:10:22;22.00;96.40
25360;DHT22;13311;51.386;0.016;2023-09-18T09:15:33;22.30;95.60
25360;DHT22;13311;51.386;0.016;2023-09-18T09:20:56;22.60;94.90
25360;DHT22;13311;51.386;0.016;2023-09-18T09:26:13;23.00;94.80
25360;DHT22;13311;51.386;0.016;2023-09-18T09:31:28;23.40;94.90
25360;DHT22;13311;51.386;0.016;2023-09-18T09:36:31;23.40;93.70
25360;DHT22;13311;51.386;0.016;2023-09-18T09:41:33;23.50;92.90
25360;DHT22;13311;51.386;0.016;2023-09-18T09:46:34;23.50;92.50
25360;DHT22;13311;51.386;0.016;2023-09-18T09:51:35;23.70;92.00
25360;DHT22;13311;51.386;0.016;2023-09-18T09:56:47;23.70;91.50
25360;DHT22;13311;51.386;0.016;2023-09-18T10:01:51;23.30;92.10
25360;DHT22;13311;51.386;0.016;2023-09-18T10:06:57;23.00;92.80
25360;DHT22;13311;51.386;0.016;2023-09-18T10:11:59;22.90;93.40
25360;DHT22;13311;51.386;0.016;2023-09-18T10:17:16;22.80;94.10
25360;DHT22;13311;51.386;0.016;2023-09-18T10:22:29;22.60;93.90
25360;DHT22;13311;51.386;0.016;2023-09-18T10:27:39;22.40;94.10
25360;DHT22;13311;51.386;0.016;2023-09-18T10:32:44;22.00;93.70
25360;DHT22;13311;51.386;0.016;2023-09-18T10:37:48;21.70;94.20
25360;DHT22;13311;51.386;0.016;2023-09-18T10:42:54;21.20;95.60
25360;DHT22;13311;51.386;0.016;2023-09-18T10:47:57;21.20;96.30
25360;DHT22;13311;51.386;0.016;2023-09-18T10:52:58;21.10;96.30
25360;DHT22;13311;51.386;0.016;2023-09-18T10:58:00;21.00;96.40
25360;DHT22;13311;51.386;0.016;2023-09-18T11:08:50;21.00;97.60
25360;DHT22;13311;51.386;0.016;2023-09-18T11:13:53;21.30;97.00
25360;DHT22;13311;51.386;0.016;2023-09-18T11:24:18;21.70;96.40
25360;DHT22;13311;51.386;0.016;2023-09-18T11:29:23;21.90;96.30
25360;DHT22;13311;51.386;0.016;2023-09-18T11:34:28;22.20;96.20
25360;DHT22;13311;51.386;0.016;2023-09-18T11:39:38;22.40;95.80
25360;DHT22;13311;51.386;0.016;2023-09-18T11:44:44;22.40;95.70
25360;DHT22;13311;51.386;0.016;2023-09-18T11:49:58;22.50;96.20
25360;DHT22;13311;51.386;0.016;2023-09-18T11:55:00;22.70;96.20
25360;DHT22;13311;51.386;0.016;2023-09-18T12:00:01;22.80;95.80
25360;DHT22;13311;51.386;0.016;2023-09-18T12:05:16;22.90;95.20
25360;DHT22;13311;51.386;0.016;2023-09-18T12:10:19;23.00;95.30
25360;DHT22;13311;51.386;0.016;2023-09-18T12:15:23;23.20;94.90
25360;DHT22;13311;51.386;0.016;2023-09-18T12:20:24;23.20;94.30
25360;DHT22;13311;51.386;0.016;2023-09-18T12:25:25;23.30;93.90
25360;DHT22;13311;51.386;0.016;2023-09-18T12:30:26;23.40;93.40
25360;DHT22;13311;51.386;0.016;2023-09-18T12:35:27;23.40;93.80
25360;DHT22;13311;51.386;0.016;2023-09-18T12:40:31;23.60;93.70
25360;DHT22;13311;51.386;0.016;2023-09-18T12:45:35;23.70;93.00
25360;DHT22;13311;51.386;0.016;2023-09-18T12:50:36;23.70;92.80
25360;DHT22;13311;51.386;0.016;2023-09-18T12:55:38;23.60;93.20
25360;DHT22;13311;51.386;0.016;2023-09-18T13:00:49;23.50;93.40
25360;DHT22;13311;51.386;0.016;2023-09-18T13:05:51;23.40;93.70
25360;DHT22;13311;51.386;0.016;2023-09-18T13:10:55;23.40;93.00
25360;DHT22;13311;51.386;0.016;2023-09-18T13:16:00;23.40;93.20
25360;DHT22;13311;51.386;0.016;2023-09-18T13:21:11;23.40;93.80
25360;DHT22;13311;51.386;0.016;2023-09-18T13:26:13;23.00;94.40
25360;DHT22;13311;51.386;0.016;2023-09-18T13:31:13;22.80;94.80
25360;DHT22;13311;51.386;0.016;2023-09-18T13:36:14;22.60;94.50
25360;DHT22;13311;51.386;0.016;2023-09-18T13:41:15;22.60;94.90
25360;DHT22;13311;51.386;0.016;2023-09-18T13:46:16;22.60;94.30
25360;DHT22;13311;51.386;0.016;2023-09-18T13:51:17;22.50;94.50
25360;DHT22;13311;51.386;0.016;2023-09-18T13:56:18;22.50;94.40
25360;DHT22;13311;51.386;0.016;2023-09-18T14:01:20;22.50;94.50
25360;DHT22;13311;51.386;0.016;2023-09-18T14:06:22;22.50;94.20
25360;DHT22;13311;51.386;0.016;2023-09-18T14:11:23;22.70;94.20
25360;DHT22;13311;51.386;0.016;2023-09-18T14:16:24;22.70;93.20
25360;DHT22;13311;51.386;0.016;2023-09-18T14:21:25;22.60;93.20
25360;DHT22;13311;51.386;0.016;2023-09-18T14:26:29;22.70;92.30
25360;DHT22;13311;51.386;0.016;2023-09-18T14:31:30;22.60;92.70
25360;DHT22;13311;51.386;0.016;2023-09-18T14:36:32;22.80;91.90
25360;DHT22;13311;51.386;0.016;2023-09-18T14:41:34;22.70;91.80
25360;DHT22;13311;51.386;0.016;2023-09-18T14:46:38;22.90;91.60
25360;DHT22;13311;51.386;0.016;2023-09-18T14:51:39;22.90;91.20
25360;DHT22;13311;51.386;0.016;2023-09-18T14:56:41;22.80;85.40
25360;DHT22;13311;51.386;0.016;2023-09-18T15:01:42;22.70;89.60
25360;DHT22;13311;51.386;0.016;2023-09-18T15:06:43;22.60;87.40
25360;DHT22;13311;51.386;0.016;2023-09-18T15:11:44;22.70;90.20
25360;DHT22;13311;51.386;0.016;2023-09-18T15:16:45;22.60;85.30
25360;DHT22;13311;51.386;0.016;2023-09-18T15:21:46;22.50;85.10
25360;DHT22;13311;51.386;0.016;2023-09-18T15:26:47;22.50;85.70
25360;DHT22;13311;51.386;0.016;2023-09-18T15:31:48;22.40;86.90
25360;DHT22;13311;51.386;0.016;2023-09-18T15:36:49;22.40;86.40
25360;DHT22;13311;51.386;0.016;2023-09-18T15:41:50;22.40;87.30
25360;DHT22;13311;51.386;0.016;2023-09-18T15:46:51;22.30;85.70
25360;DHT22;13311;51.386;0.016;2023-09-18T15:51:52;22.50;82.90
25360;DHT22;13311;51.386;0.016;2023-09-18T15:56:52;22.50;87.50
25360;DHT22;13311;51.386;0.016;2023-09-18T16:01:54;22.50;84.40
25360;DHT22;13311;51.386;0.016;2023-09-18T16:06:55;22.40;84.10
25360;DHT22;13311;51.386;0.016;2023-09-18T16:11:55;22.40;83.30
25360;DHT22;13311;51.386;0.016;2023-09-18T16:16:56;22.30;81.50
25360;DHT22;13311;51.386;0.016;2023-09-18T16:21:58;22.30;83.60
25360;DHT22;13311;51.386;0.016;2023-09-18T16:26:59;22.40;83.20
25360;DHT22;13311;51.386;0.016;2023-09-18T16:32:00;22.40;84.40
25360;DHT22;13311;51.386;0.016;2023-09-18T16:37:01;22.20;81.20
25360;DHT22;13311;51.386;0.016;2023-09-18T16:42:03;22.20;80.60
25360;DHT22;13311;51.386;0.016;2023-09-18T16:47:04;22.20;80.50
25360;DHT22;13311;51.386;0.016;2023-09-18T16:52:06;22.10;84.50
25360;DHT22;13311;51.386;0.016;2023-09-18T16:57:06;22.00;80.40
25360;DHT22;13311;51.386;0.016;2023-09-18T17:02:07;22.10;78.30
25360;DHT22;13311;51.386;0.016;2023-09-18T17:07:08;22.10;81.50
25360;DHT22;13311;51.386;0.016;2023-09-18T17:12:09;21.90;80.50
25360;DHT22;13311;51.386;0.016;2023-09-18T17:17:10;21.70;76.40
25360;DHT22;13311;51.386;0.016;2023-09-18T17:22:11;21.60;80.50
25360;DHT22;13311;51.386;0.016;2023-09-18T17:27:12;21.50;77.70
25360;DHT22;13311;51.386;0.016;2023-09-18T17:32:12;21.50;76.50
25360;DHT22;13311;51.386;0.016;2023-09-18T17:37:13;21.40;78.90
25360;DHT22;13311;51.386;0.016;2023-09-18T17:42:14;21.30;78.00
25360;DHT22;13311;51.386;0.016;2023-09-18T17:47:15;21.20;77.20
25360;DHT22;13311;51.386;0.016;2023-09-18T17:52:16;21.00;72.10
25360;DHT22;13311;51.386;0.016;2023-09-18T17:57:17;20.90;78.90
25360;DHT22;13311;51.386;0.016;2023-09-18T18:02:18;20.90;74.60
25360;DHT22;13311;51.386;0.016;2023-09-18T18:07:18;20.70;71.80
25360;DHT22;13311;51.386;0.016;2023-09-18T18:12:19;20.80;78.70
25360;DHT22;13311;51.386;0.016;2023-09-18T18:17:20;20.60;76.20
25360;DHT22;13311;51.386;0.016;2023-09-18T18:22:20;20.60;77.10
25360;DHT22;13311;51.386;0.016;2023-09-18T18:27:21;20.40;73.70
25360;DHT22;13311;51.386;0.016;2023-09-18T18:32:22;20.20;76.00
25360;DHT22;13311;51.386;0.016;2023-09-18T18:37:23;20.20;77.90
25360;DHT22;13311;51.386;0.016;2023-09-18T18:42:24;20.10;77.60
25360;DHT22;13311;51.386;0.016;2023-09-18T18:47:25;19.90;74.30
25360;DHT22;13311;51.386;0.016;2023-09-18T18:52:25;19.90;76.10
25360;DHT22;13311;51.386;0.016;2023-09-18T18:57:26;19.80;75.00
25360;DHT22;13311;51.386;0.016;2023-09-18T19:02:27;19.80;76.50
25360;DHT22;13311;51.386;0.016;2023-09-18T19:07:28;19.70;78.80
25360;DHT22;13311;51.386;0.016;2023-09-18T19:12:29;19.80;79.20
25360;DHT22;13311;51.386;0.016;2023-09-18T19:17:30;19.80;79.20
25360;DHT22;13311;51.386;0.016;2023-09-18T19:22:31;19.60;76.70
25360;DHT22;13311;51.386;0.016;2023-09-18T19:27:32;19.50;75.80
25360;DHT22;13311;51.386;0.016;2023-09-18T19:32:37;19.40;77.00
25360;DHT22;13311;51.386;0.016;2023-09-18T19:37:39;19.40;78.70
25360;DHT22;13311;51.386;0.016;2023-09-18T19:42:39;19.30;77.50
25360;DHT22;13311;51.386;0.016;2023-09-18T19:47:40;19.20;76.70
25360;DHT22;13311;51.386;0.016;2023-09-18T19:52:41;19.20;78.70
25360;DHT22;13311;51.386;0.016;2023-09-18T19:57:41;19.10;77.70
25360;DHT22;13311;51.386;0.016;2023-09-18T20:02:43;19.00;77.60
25360;DHT22;13311;51.386;0.016;2023-09-18T20:07:46;18.90;78.00
25360;DHT22;13311;51.386;0.016;2023-09-18T20:12:49;18.70;78.20
25360;DHT22;13311;51.386;0.016;2023-09-18T20:17:50;18.70;78.30
25360;DHT22;13311;51.386;0.016;2023-09-18T20:22:52;18.60;78.40
25360;DHT22;13311;51.386;0.016;2023-09-18T20:27:53;18.50;78.80
25360;DHT22;13311;51.386;0.016;2023-09-18T20:32:55;18.50;78.70
25360;DHT22;13311;51.386;0.016;2023-09-18T20:37:56;18.40;78.70
25360;DHT22;13311;51.386;0.016;2023-09-18T20:42:57;18.40;79.10
25360;DHT22;13311;51.386;0.016;2023-09-18T20:47:58;18.40;78.00
25360;DHT22;13311;51.386;0.016;2023-09-18T20:52:58;18.30;78.60
25360;DHT22;13311;51.386;0.016;2023-09-18T20:57:59;18.20;78.90
25360;DHT22;13311;51.386;0.016;2023-09-18T21:03:00;18.10;79.70
25360;DHT22;13311;51.386;0.016;2023-09-18T21:08:01;18.00;79.40
25360;DHT22;13311;51.386;0.016;2023-09-18T21:13:02;18.10;79.40
25360;DHT22;13311;51.386;0.016;2023-09-18T21:18:04;18.10;80.10
25360;DHT22;13311;51.386;0.016;2023-09-18T21:23:04;18.10;79.80
25360;DHT22;13311;51.386;0.016;2023-09-18T21:28:06;18.20;80.60
25360;DHT22;13311;51.386;0.016;2023-09-18T21:33:06;18.20;79.30
25360;DHT22;13311;51.386;0.016;2023-09-18T21:38:07;18.10;80.00
25360;DHT22;13311;51.386;0.016;2023-09-18T21:43:08;18.20;80.00
25360;DHT22;13311;51.386;0.016;2023-09-18T21:48:09;18.10;79.80
25360;DHT22;13311;51.386;0.016;2023-09-18T21:53:10;18.10;80.00
25360;DHT22;13311;51.386;0.016;2023-09-18T21:58:11;18.10;80.40
25360;DHT22;13311;51.386;0.016;2023-09-18T22:03:11;18.20;81.50
25360;DHT22;13311;51.386;0.016;2023-09-18T22:08:13;18.20;81.70
25360;DHT22;13311;51.386;0.016;2023-09-18T22:13:13;18.40;82.60
25360;DHT22;13311;51.386;0.016;2023-09-18T22:18:15;18.40;81.50
25360;DHT22;13311;51.386;0.016;2023-09-18T22:23:17;18.50;82.50
25360;DHT22;13311;51.386;0.016;2023-09-18T22:28:18;18.60;84.20
25360;DHT22;13311;51.386;0.016;2023-09-18T22:33:19;18.50;85.50
25360;DHT22;13311;51.386;0.016;2023-09-18T22:38:28;18.40;86.10
25360;DHT22;13311;51.386;0.016;2023-09-18T22:55:44;18.30;85.20
25360;DHT22;13311;51.386;0.016;2023-09-18T23:00:45;18.20;85.50
25360;DHT22;13311;51.386;0.016;2023-09-18T23:05:46;18.30;85.40
25360;DHT22;13311;51.386;0.016;2023-09-18T23:10:46;18.40;85.60
25360;DHT22;13311;51.386;0.016;2023-09-18T23:15:48;18.30;85.60
25360;DHT22;13311;51.386;0.016;2023-09-18T23:20:49;18.30;85.80
25360;DHT22;13311;51.386;0.016;2023-09-18T23:25:53;18.10;86.60
25360;DHT22;13311;51.386;0.016;2023-09-18T23:30:55;17.90;87.60
25360;DHT22;13311;51.386;0.016;2023-09-18T23:35:57;18.00;87.20
25360;DHT22;13311;51.386;0.016;2023-09-18T23:41:00;17.90;87.50
25360;DHT22;13311;51.386;0.016;2023-09-18T23:46:03;17.80;87.80
25360;DHT22;13311;51.386;0.016;2023-09-18T23:51:05;17.70;88.60
25360;DHT22;13311;51.386;0.016;2023-09-18T23:56:08;17.50;89.20
